Terminal Aerodrome Forecast
Issued by NWS

Current Version | Previous Version | Text Only | Print | Product List | Glossary On
Versions: 1 2 3 4 5 6 7 8 9 10 11 12 13 14
000
FTUS41 KRNK 181137
TAFBCB
TAF
KBCB 181137Z 1812/1912 VRB04KT P6SM OVC013
     FM181500 12006KT P6SM SCT018 OVC150
     FM190100 09006KT P6SM SCT015 OVC100
     FM190600 08007KT P6SM BKN013 OVC080 PROB30 1908/1912 4SM -DZ
      BR=

USA.gov is the U.S. government's official web portal to all federal, state and local government web resources and services.